X  Schlie├čen METAR Luftfahrt Wetterdaten     EHKD De Kooy Airport
Temperatur
7°C Temperatur
4°C Taupunkt
81% Feuchtigkeit



Wind
27 KM/S
17 MPS
8 M/S
15 KTS



280°
W
Aktuelle Wetterlage

Meistens vereinzelte Wolken Meistens vereinzelte Wolken
Luftdruck 997.97 (hPa) - 29.47 (inHg)
Sichtweite 6 (Meile) - 9.7 (Km)
Flughafen
Flughafen Code EHKD

Position : De Kooy Airport
Entfernung: 34 (Km)

Metar:
EHKD 160025Z AUTO 28015KT 240V320 9999 SCT019 BKN022 BKN026 07/04 Q0998 REDZ WHT

Zeit: 16-04-2024 02:25 CEST